sensor_id;sensor_type;location;lat;lon;timestamp;P1;durP1;ratioP1;P2;durP2;ratioP2
7899;SDS011;3995;50.856;4.404;2023-06-22T00:01:46;3.67;;;3.00;;
7899;SDS011;3995;50.856;4.404;2023-06-22T00:04:14;5.50;;;3.30;;
7899;SDS011;3995;50.856;4.404;2023-06-22T00:06:43;5.63;;;4.03;;
7899;SDS011;3995;50.856;4.404;2023-06-22T00:09:11;3.60;;;2.90;;
7899;SDS011;3995;50.856;4.404;2023-06-22T00:11:40;7.50;;;3.43;;
7899;SDS011;3995;50.856;4.404;2023-06-22T00:14:08;4.93;;;3.20;;
7899;SDS011;3995;50.856;4.404;2023-06-22T00:16:35;5.23;;;3.63;;
7899;SDS011;3995;50.856;4.404;2023-06-22T00:19:02;3.80;;;3.10;;
7899;SDS011;3995;50.856;4.404;2023-06-22T00:21:30;3.90;;;3.43;;
7899;SDS011;3995;50.856;4.404;2023-06-22T00:23:57;5.40;;;3.90;;
7899;SDS011;3995;50.856;4.404;2023-06-22T00:26:25;6.70;;;3.77;;
7899;SDS011;3995;50.856;4.404;2023-06-22T00:28:54;5.67;;;3.23;;
7899;SDS011;3995;50.856;4.404;2023-06-22T00:31:22;5.53;;;3.30;;
7899;SDS011;3995;50.856;4.404;2023-06-22T00:33:49;4.87;;;3.10;;
7899;SDS011;3995;50.856;4.404;2023-06-22T00:36:17;5.87;;;3.50;;
7899;SDS011;3995;50.856;4.404;2023-06-22T00:38:44;5.17;;;3.67;;
7899;SDS011;3995;50.856;4.404;2023-06-22T00:41:11;5.33;;;3.67;;
7899;SDS011;3995;50.856;4.404;2023-06-22T00:43:39;7.57;;;3.80;;
7899;SDS011;3995;50.856;4.404;2023-06-22T00:46:09;4.27;;;3.83;;
7899;SDS011;3995;50.856;4.404;2023-06-22T00:48:36;8.20;;;3.60;;
7899;SDS011;3995;50.856;4.404;2023-06-22T00:51:05;5.67;;;3.47;;
7899;SDS011;3995;50.856;4.404;2023-06-22T00:53:32;8.53;;;3.80;;
7899;SDS011;3995;50.856;4.404;2023-06-22T00:56:02;3.63;;;3.33;;
7899;SDS011;3995;50.856;4.404;2023-06-22T00:58:30;7.13;;;3.53;;
7899;SDS011;3995;50.856;4.404;2023-06-22T01:00:59;5.77;;;3.30;;
7899;SDS011;3995;50.856;4.404;2023-06-22T01:03:28;5.53;;;3.90;;
7899;SDS011;3995;50.856;4.404;2023-06-22T01:05:56;6.77;;;4.10;;
7899;SDS011;3995;50.856;4.404;2023-06-22T01:08:29;9.50;;;4.80;;
7899;SDS011;3995;50.856;4.404;2023-06-22T01:11:05;5.23;;;3.90;;
7899;SDS011;3995;50.856;4.404;2023-06-22T01:13:37;6.93;;;3.87;;
7899;SDS011;3995;50.856;4.404;2023-06-22T01:16:16;6.60;;;4.03;;
7899;SDS011;3995;50.856;4.404;2023-06-22T01:18:49;5.53;;;4.40;;
7899;SDS011;3995;50.856;4.404;2023-06-22T01:21:20;5.50;;;4.00;;
7899;SDS011;3995;50.856;4.404;2023-06-22T01:23:58;4.83;;;3.93;;
7899;SDS011;3995;50.856;4.404;2023-06-22T01:26:38;8.00;;;4.70;;
7899;SDS011;3995;50.856;4.404;2023-06-22T01:29:10;5.67;;;4.43;;
7899;SDS011;3995;50.856;4.404;2023-06-22T01:31:39;4.30;;;3.90;;
7899;SDS011;3995;50.856;4.404;2023-06-22T01:34:08;4.50;;;3.83;;
7899;SDS011;3995;50.856;4.404;2023-06-22T01:36:37;6.53;;;4.00;;
7899;SDS011;3995;50.856;4.404;2023-06-22T01:39:07;5.50;;;4.77;;
7899;SDS011;3995;50.856;4.404;2023-06-22T01:41:36;5.30;;;4.10;;
7899;SDS011;3995;50.856;4.404;2023-06-22T01:44:04;4.93;;;4.00;;
7899;SDS011;3995;50.856;4.404;2023-06-22T01:46:33;4.77;;;4.17;;
7899;SDS011;3995;50.856;4.404;2023-06-22T01:49:02;6.53;;;4.00;;
7899;SDS011;3995;50.856;4.404;2023-06-22T01:51:30;6.00;;;3.87;;
7899;SDS011;3995;50.856;4.404;2023-06-22T01:53:58;5.37;;;4.07;;
7899;SDS011;3995;50.856;4.404;2023-06-22T01:56:25;5.80;;;4.60;;
7899;SDS011;3995;50.856;4.404;2023-06-22T01:58:55;5.60;;;4.30;;
7899;SDS011;3995;50.856;4.404;2023-06-22T02:01:28;7.00;;;4.30;;
7899;SDS011;3995;50.856;4.404;2023-06-22T02:04:06;5.73;;;4.23;;
7899;SDS011;3995;50.856;4.404;2023-06-22T02:06:39;5.07;;;3.53;;
7899;SDS011;3995;50.856;4.404;2023-06-22T02:09:12;6.47;;;5.10;;
7899;SDS011;3995;50.856;4.404;2023-06-22T02:11:44;5.90;;;4.30;;
7899;SDS011;3995;50.856;4.404;2023-06-22T02:14:12;4.90;;;4.40;;
7899;SDS011;3995;50.856;4.404;2023-06-22T02:16:40;5.63;;;4.33;;
7899;SDS011;3995;50.856;4.404;2023-06-22T02:19:10;7.27;;;4.97;;
7899;SDS011;3995;50.856;4.404;2023-06-22T02:21:37;6.40;;;4.60;;
7899;SDS011;3995;50.856;4.404;2023-06-22T02:24:05;8.60;;;4.67;;
7899;SDS011;3995;50.856;4.404;2023-06-22T02:26:32;6.27;;;4.37;;
7899;SDS011;3995;50.856;4.404;2023-06-22T02:28:59;4.87;;;4.37;;
7899;SDS011;3995;50.856;4.404;2023-06-22T02:31:27;4.87;;;4.37;;
7899;SDS011;3995;50.856;4.404;2023-06-22T02:33:56;5.87;;;4.73;;
7899;SDS011;3995;50.856;4.404;2023-06-22T02:36:26;5.80;;;4.20;;
7899;SDS011;3995;50.856;4.404;2023-06-22T02:38:55;4.00;;;3.60;;
7899;SDS011;3995;50.856;4.404;2023-06-22T02:41:24;4.53;;;3.83;;
7899;SDS011;3995;50.856;4.404;2023-06-22T02:43:51;6.50;;;4.37;;
7899;SDS011;3995;50.856;4.404;2023-06-22T02:46:19;7.70;;;4.80;;
7899;SDS011;3995;50.856;4.404;2023-06-22T02:48:47;6.47;;;4.33;;
7899;SDS011;3995;50.856;4.404;2023-06-22T02:51:14;5.40;;;4.33;;
7899;SDS011;3995;50.856;4.404;2023-06-22T02:53:43;7.43;;;4.80;;
7899;SDS011;3995;50.856;4.404;2023-06-22T02:56:12;10.93;;;4.53;;
7899;SDS011;3995;50.856;4.404;2023-06-22T02:58:40;7.10;;;4.57;;
7899;SDS011;3995;50.856;4.404;2023-06-22T03:01:08;7.20;;;5.07;;
7899;SDS011;3995;50.856;4.404;2023-06-22T03:03:38;11.20;;;5.30;;
7899;SDS011;3995;50.856;4.404;2023-06-22T03:06:06;7.60;;;4.63;;
7899;SDS011;3995;50.856;4.404;2023-06-22T03:08:39;6.87;;;4.87;;
7899;SDS011;3995;50.856;4.404;2023-06-22T03:11:08;6.13;;;5.00;;
7899;SDS011;3995;50.856;4.404;2023-06-22T03:13:35;7.93;;;5.27;;
7899;SDS011;3995;50.856;4.404;2023-06-22T03:16:02;6.50;;;4.60;;
7899;SDS011;3995;50.856;4.404;2023-06-22T03:18:30;6.27;;;4.90;;
7899;SDS011;3995;50.856;4.404;2023-06-22T03:20:58;6.13;;;4.60;;
7899;SDS011;3995;50.856;4.404;2023-06-22T03:23:27;8.97;;;5.57;;
7899;SDS011;3995;50.856;4.404;2023-06-22T03:25:55;5.77;;;4.93;;
7899;SDS011;3995;50.856;4.404;2023-06-22T03:28:24;6.50;;;5.00;;
7899;SDS011;3995;50.856;4.404;2023-06-22T03:30:52;6.20;;;5.10;;
7899;SDS011;3995;50.856;4.404;2023-06-22T03:33:19;9.70;;;5.00;;
7899;SDS011;3995;50.856;4.404;2023-06-22T03:35:47;7.43;;;4.63;;
7899;SDS011;3995;50.856;4.404;2023-06-22T03:38:15;5.97;;;5.30;;
7899;SDS011;3995;50.856;4.404;2023-06-22T03:40:43;6.33;;;4.67;;
7899;SDS011;3995;50.856;4.404;2023-06-22T03:43:10;6.47;;;4.80;;
7899;SDS011;3995;50.856;4.404;2023-06-22T03:45:39;5.00;;;4.47;;
7899;SDS011;3995;50.856;4.404;2023-06-22T03:48:07;7.33;;;5.10;;
7899;SDS011;3995;50.856;4.404;2023-06-22T03:50:35;6.53;;;4.60;;
7899;SDS011;3995;50.856;4.404;2023-06-22T03:53:02;8.00;;;4.93;;
7899;SDS011;3995;50.856;4.404;2023-06-22T03:55:29;8.10;;;5.47;;
7899;SDS011;3995;50.856;4.404;2023-06-22T03:57:57;7.07;;;5.17;;
7899;SDS011;3995;50.856;4.404;2023-06-22T04:00:30;7.00;;;5.50;;
7899;SDS011;3995;50.856;4.404;2023-06-22T04:02:59;5.37;;;4.87;;
7899;SDS011;3995;50.856;4.404;2023-06-22T04:05:27;5.40;;;4.90;;
7899;SDS011;3995;50.856;4.404;2023-06-22T04:07:54;7.23;;;5.80;;
7899;SDS011;3995;50.856;4.404;2023-06-22T04:10:21;5.67;;;5.13;;
7899;SDS011;3995;50.856;4.404;2023-06-22T04:12:49;8.20;;;5.90;;
7899;SDS011;3995;50.856;4.404;2023-06-22T04:15:16;6.17;;;5.57;;
7899;SDS011;3995;50.856;4.404;2023-06-22T04:17:44;6.30;;;5.70;;
7899;SDS011;3995;50.856;4.404;2023-06-22T04:20:14;7.50;;;6.23;;
7899;SDS011;3995;50.856;4.404;2023-06-22T04:22:41;9.57;;;6.50;;
7899;SDS011;3995;50.856;4.404;2023-06-22T04:25:08;9.00;;;6.13;;
7899;SDS011;3995;50.856;4.404;2023-06-22T04:27:36;8.60;;;6.80;;
7899;SDS011;3995;50.856;4.404;2023-06-22T04:30:06;9.30;;;6.80;;
7899;SDS011;3995;50.856;4.404;2023-06-22T04:32:34;9.50;;;6.37;;
7899;SDS011;3995;50.856;4.404;2023-06-22T04:35:02;21.43;;;7.53;;
7899;SDS011;3995;50.856;4.404;2023-06-22T04:37:33;10.40;;;6.73;;
7899;SDS011;3995;50.856;4.404;2023-06-22T04:40:00;9.80;;;7.77;;
7899;SDS011;3995;50.856;4.404;2023-06-22T04:42:29;8.90;;;7.07;;
7899;SDS011;3995;50.856;4.404;2023-06-22T04:45:00;12.03;;;7.50;;
7899;SDS011;3995;50.856;4.404;2023-06-22T04:47:27;12.03;;;7.00;;
7899;SDS011;3995;50.856;4.404;2023-06-22T04:49:55;10.87;;;6.80;;
7899;SDS011;3995;50.856;4.404;2023-06-22T04:52:22;7.90;;;6.00;;
7899;SDS011;3995;50.856;4.404;2023-06-22T04:54:52;8.00;;;6.10;;
7899;SDS011;3995;50.856;4.404;2023-06-22T04:57:20;8.30;;;6.87;;
7899;SDS011;3995;50.856;4.404;2023-06-22T04:59:57;12.73;;;7.30;;
7899;SDS011;3995;50.856;4.404;2023-06-22T05:02:39;19.30;;;7.57;;
7899;SDS011;3995;50.856;4.404;2023-06-22T05:05:08;10.73;;;7.33;;
7899;SDS011;3995;50.856;4.404;2023-06-22T05:07:39;10.17;;;6.67;;
7899;SDS011;3995;50.856;4.404;2023-06-22T05:10:09;10.23;;;6.80;;
7899;SDS011;3995;50.856;4.404;2023-06-22T05:12:37;17.60;;;8.57;;
7899;SDS011;3995;50.856;4.404;2023-06-22T05:15:06;22.63;;;8.40;;
7899;SDS011;3995;50.856;4.404;2023-06-22T05:17:34;23.03;;;9.03;;
7899;SDS011;3995;50.856;4.404;2023-06-22T05:20:08;26.40;;;8.70;;
7899;SDS011;3995;50.856;4.404;2023-06-22T05:22:36;14.63;;;7.80;;
7899;SDS011;3995;50.856;4.404;2023-06-22T05:25:04;17.30;;;8.70;;
7899;SDS011;3995;50.856;4.404;2023-06-22T05:27:36;16.50;;;8.17;;
7899;SDS011;3995;50.856;4.404;2023-06-22T05:30:05;20.93;;;8.50;;
7899;SDS011;3995;50.856;4.404;2023-06-22T05:32:34;12.93;;;7.60;;
7899;SDS011;3995;50.856;4.404;2023-06-22T05:35:02;15.60;;;8.87;;
7899;SDS011;3995;50.856;4.404;2023-06-22T05:37:30;19.43;;;9.90;;
7899;SDS011;3995;50.856;4.404;2023-06-22T05:39:58;14.53;;;8.10;;
7899;SDS011;3995;50.856;4.404;2023-06-22T05:42:26;32.80;;;8.90;;
7899;SDS011;3995;50.856;4.404;2023-06-22T05:44:54;17.03;;;7.77;;
7899;SDS011;3995;50.856;4.404;2023-06-22T05:47:24;10.87;;;8.23;;
7899;SDS011;3995;50.856;4.404;2023-06-22T05:49:51;11.30;;;8.60;;
7899;SDS011;3995;50.856;4.404;2023-06-22T05:52:20;12.63;;;8.90;;
7899;SDS011;3995;50.856;4.404;2023-06-22T05:54:47;11.57;;;8.73;;
7899;SDS011;3995;50.856;4.404;2023-06-22T05:57:15;16.40;;;8.03;;
7899;SDS011;3995;50.856;4.404;2023-06-22T05:59:42;11.23;;;9.93;;
7899;SDS011;3995;50.856;4.404;2023-06-22T06:02:11;16.30;;;9.73;;
7899;SDS011;3995;50.856;4.404;2023-06-22T06:04:39;18.70;;;9.77;;
7899;SDS011;3995;50.856;4.404;2023-06-22T06:07:06;13.00;;;8.90;;
7899;SDS011;3995;50.856;4.404;2023-06-22T06:09:34;10.83;;;9.43;;
7899;SDS011;3995;50.856;4.404;2023-06-22T06:12:02;12.67;;;9.77;;
7899;SDS011;3995;50.856;4.404;2023-06-22T06:14:30;13.73;;;9.10;;
7899;SDS011;3995;50.856;4.404;2023-06-22T06:16:58;16.87;;;9.47;;
7899;SDS011;3995;50.856;4.404;2023-06-22T06:19:28;11.20;;;9.53;;
7899;SDS011;3995;50.856;4.404;2023-06-22T06:21:56;15.80;;;8.47;;
7899;SDS011;3995;50.856;4.404;2023-06-22T06:24:23;10.40;;;8.30;;
7899;SDS011;3995;50.856;4.404;2023-06-22T06:26:51;13.33;;;9.67;;
7899;SDS011;3995;50.856;4.404;2023-06-22T06:29:18;12.20;;;9.10;;
7899;SDS011;3995;50.856;4.404;2023-06-22T06:31:46;15.53;;;10.40;;
7899;SDS011;3995;50.856;4.404;2023-06-22T06:34:14;13.90;;;9.80;;
7899;SDS011;3995;50.856;4.404;2023-06-22T06:36:43;12.23;;;10.10;;
7899;SDS011;3995;50.856;4.404;2023-06-22T06:39:10;14.77;;;11.03;;
7899;SDS011;3995;50.856;4.404;2023-06-22T06:41:38;20.03;;;10.17;;
7899;SDS011;3995;50.856;4.404;2023-06-22T06:44:06;15.87;;;10.47;;
7899;SDS011;3995;50.856;4.404;2023-06-22T06:46:34;16.57;;;11.03;;
7899;SDS011;3995;50.856;4.404;2023-06-22T06:49:02;18.77;;;11.40;;
7899;SDS011;3995;50.856;4.404;2023-06-22T06:51:30;17.57;;;10.37;;
7899;SDS011;3995;50.856;4.404;2023-06-22T06:54:00;11.83;;;10.57;;
7899;SDS011;3995;50.856;4.404;2023-06-22T06:56:29;13.53;;;11.00;;
7899;SDS011;3995;50.856;4.404;2023-06-22T06:58:58;17.20;;;11.67;;
7899;SDS011;3995;50.856;4.404;2023-06-22T07:01:26;17.20;;;10.93;;
7899;SDS011;3995;50.856;4.404;2023-06-22T07:03:58;17.63;;;12.10;;
7899;SDS011;3995;50.856;4.404;2023-06-22T07:06:28;18.43;;;12.20;;
7899;SDS011;3995;50.856;4.404;2023-06-22T07:08:57;13.60;;;10.43;;
7899;SDS011;3995;50.856;4.404;2023-06-22T07:11:26;15.07;;;11.50;;
7899;SDS011;3995;50.856;4.404;2023-06-22T07:13:53;13.20;;;10.20;;
7899;SDS011;3995;50.856;4.404;2023-06-22T07:16:21;15.17;;;11.03;;
7899;SDS011;3995;50.856;4.404;2023-06-22T07:18:50;16.60;;;12.80;;
7899;SDS011;3995;50.856;4.404;2023-06-22T07:21:18;12.53;;;10.77;;
7899;SDS011;3995;50.856;4.404;2023-06-22T07:23:45;16.43;;;11.87;;
7899;SDS011;3995;50.856;4.404;2023-06-22T07:26:13;25.83;;;12.53;;
7899;SDS011;3995;50.856;4.404;2023-06-22T07:28:43;11.87;;;10.67;;
7899;SDS011;3995;50.856;4.404;2023-06-22T07:31:10;13.37;;;11.37;;
7899;SDS011;3995;50.856;4.404;2023-06-22T07:33:38;16.17;;;10.50;;
7899;SDS011;3995;50.856;4.404;2023-06-22T07:36:06;14.80;;;11.07;;
7899;SDS011;3995;50.856;4.404;2023-06-22T07:38:34;12.93;;;11.63;;
7899;SDS011;3995;50.856;4.404;2023-06-22T07:41:02;15.30;;;11.50;;
7899;SDS011;3995;50.856;4.404;2023-06-22T07:43:30;15.40;;;11.10;;
7899;SDS011;3995;50.856;4.404;2023-06-22T07:46:01;19.17;;;10.90;;
7899;SDS011;3995;50.856;4.404;2023-06-22T07:48:29;14.27;;;10.60;;
7899;SDS011;3995;50.856;4.404;2023-06-22T07:50:56;15.40;;;10.30;;
7899;SDS011;3995;50.856;4.404;2023-06-22T07:53:25;12.90;;;10.00;;
7899;SDS011;3995;50.856;4.404;2023-06-22T07:55:53;16.57;;;11.17;;
7899;SDS011;3995;50.856;4.404;2023-06-22T07:58:20;15.63;;;10.70;;
7899;SDS011;3995;50.856;4.404;2023-06-22T08:00:48;18.00;;;10.57;;
7899;SDS011;3995;50.856;4.404;2023-06-22T08:03:17;14.13;;;9.30;;
7899;SDS011;3995;50.856;4.404;2023-06-22T08:05:45;14.10;;;10.30;;
7899;SDS011;3995;50.856;4.404;2023-06-22T08:08:14;13.70;;;10.33;;
7899;SDS011;3995;50.856;4.404;2023-06-22T08:10:41;15.20;;;9.47;;
7899;SDS011;3995;50.856;4.404;2023-06-22T08:13:09;11.97;;;9.77;;
7899;SDS011;3995;50.856;4.404;2023-06-22T08:15:37;17.33;;;9.33;;
7899;SDS011;3995;50.856;4.404;2023-06-22T08:18:05;13.07;;;9.90;;
7899;SDS011;3995;50.856;4.404;2023-06-22T08:20:34;13.60;;;9.77;;
7899;SDS011;3995;50.856;4.404;2023-06-22T08:23:01;14.53;;;9.57;;
7899;SDS011;3995;50.856;4.404;2023-06-22T08:25:31;13.73;;;9.63;;
7899;SDS011;3995;50.856;4.404;2023-06-22T08:27:59;13.10;;;9.40;;
7899;SDS011;3995;50.856;4.404;2023-06-22T08:30:27;17.50;;;9.70;;
7899;SDS011;3995;50.856;4.404;2023-06-22T08:32:55;15.20;;;10.13;;
7899;SDS011;3995;50.856;4.404;2023-06-22T08:35:22;14.03;;;9.10;;
7899;SDS011;3995;50.856;4.404;2023-06-22T08:37:54;15.43;;;10.63;;
7899;SDS011;3995;50.856;4.404;2023-06-22T08:40:22;16.87;;;10.20;;
7899;SDS011;3995;50.856;4.404;2023-06-22T08:42:50;17.70;;;11.23;;
7899;SDS011;3995;50.856;4.404;2023-06-22T08:45:17;13.73;;;10.30;;
7899;SDS011;3995;50.856;4.404;2023-06-22T08:47:45;10.37;;;9.17;;
7899;SDS011;3995;50.856;4.404;2023-06-22T08:50:13;12.27;;;10.17;;
7899;SDS011;3995;50.856;4.404;2023-06-22T08:52:41;10.23;;;9.23;;
7899;SDS011;3995;50.856;4.404;2023-06-22T08:55:10;10.27;;;9.20;;
7899;SDS011;3995;50.856;4.404;2023-06-22T08:57:39;15.27;;;10.13;;
7899;SDS011;3995;50.856;4.404;2023-06-22T09:00:08;12.60;;;10.33;;
7899;SDS011;3995;50.856;4.404;2023-06-22T09:02:41;21.33;;;11.10;;
7899;SDS011;3995;50.856;4.404;2023-06-22T09:05:09;13.97;;;9.73;;
7899;SDS011;3995;50.856;4.404;2023-06-22T09:07:36;11.17;;;9.87;;
7899;SDS011;3995;50.856;4.404;2023-06-22T09:10:04;13.83;;;9.07;;
7899;SDS011;3995;50.856;4.404;2023-06-22T09:12:33;14.73;;;9.33;;
7899;SDS011;3995;50.856;4.404;2023-06-22T09:15:03;11.97;;;8.73;;
7899;SDS011;3995;50.856;4.404;2023-06-22T09:17:32;11.20;;;9.20;;
7899;SDS011;3995;50.856;4.404;2023-06-22T09:20:02;14.23;;;9.97;;
7899;SDS011;3995;50.856;4.404;2023-06-22T09:22:31;14.40;;;9.17;;
7899;SDS011;3995;50.856;4.404;2023-06-22T09:24:58;12.80;;;8.70;;
7899;SDS011;3995;50.856;4.404;2023-06-22T09:27:26;10.07;;;8.83;;
7899;SDS011;3995;50.856;4.404;2023-06-22T09:29:55;11.23;;;9.23;;
7899;SDS011;3995;50.856;4.404;2023-06-22T09:32:23;9.87;;;8.87;;
7899;SDS011;3995;50.856;4.404;2023-06-22T09:34:51;12.43;;;10.13;;
7899;SDS011;3995;50.856;4.404;2023-06-22T09:37:18;10.63;;;8.60;;
7899;SDS011;3995;50.856;4.404;2023-06-22T09:39:45;9.73;;;8.73;;
7899;SDS011;3995;50.856;4.404;2023-06-22T09:42:12;15.17;;;9.50;;
7899;SDS011;3995;50.856;4.404;2023-06-22T09:44:39;25.93;;;10.73;;
7899;SDS011;3995;50.856;4.404;2023-06-22T09:47:09;15.27;;;8.83;;
7899;SDS011;3995;50.856;4.404;2023-06-22T09:49:36;16.97;;;10.20;;
7899;SDS011;3995;50.856;4.404;2023-06-22T09:52:03;13.30;;;10.30;;
7899;SDS011;3995;50.856;4.404;2023-06-22T09:54:32;29.87;;;12.53;;
7899;SDS011;3995;50.856;4.404;2023-06-22T09:56:59;15.10;;;10.30;;
7899;SDS011;3995;50.856;4.404;2023-06-22T09:59:26;17.77;;;9.93;;
7899;SDS011;3995;50.856;4.404;2023-06-22T10:01:53;14.00;;;10.57;;
7899;SDS011;3995;50.856;4.404;2023-06-22T10:04:22;13.90;;;10.20;;
7899;SDS011;3995;50.856;4.404;2023-06-22T10:06:49;15.20;;;9.77;;
7899;SDS011;3995;50.856;4.404;2023-06-22T10:09:17;15.13;;;10.10;;
7899;SDS011;3995;50.856;4.404;2023-06-22T10:11:46;13.33;;;10.37;;
7899;SDS011;3995;50.856;4.404;2023-06-22T10:14:13;15.23;;;9.53;;
7899;SDS011;3995;50.856;4.404;2023-06-22T10:16:41;11.30;;;9.30;;
7899;SDS011;3995;50.856;4.404;2023-06-22T10:19:09;12.30;;;10.40;;
7899;SDS011;3995;50.856;4.404;2023-06-22T10:21:38;16.20;;;9.47;;
7899;SDS011;3995;50.856;4.404;2023-06-22T10:24:06;11.00;;;9.67;;
7899;SDS011;3995;50.856;4.404;2023-06-22T10:26:34;10.93;;;8.80;;
7899;SDS011;3995;50.856;4.404;2023-06-22T10:29:02;14.90;;;10.00;;
7899;SDS011;3995;50.856;4.404;2023-06-22T10:31:30;11.47;;;9.37;;
7899;SDS011;3995;50.856;4.404;2023-06-22T10:33:58;12.47;;;8.67;;
7899;SDS011;3995;50.856;4.404;2023-06-22T10:36:26;10.83;;;9.33;;
7899;SDS011;3995;50.856;4.404;2023-06-22T10:38:55;10.53;;;9.10;;
7899;SDS011;3995;50.856;4.404;2023-06-22T10:41:24;11.80;;;9.60;;
7899;SDS011;3995;50.856;4.404;2023-06-22T10:43:54;12.10;;;10.50;;
7899;SDS011;3995;50.856;4.404;2023-06-22T10:46:21;13.60;;;10.30;;
7899;SDS011;3995;50.856;4.404;2023-06-22T10:48:51;11.00;;;9.87;;
7899;SDS011;3995;50.856;4.404;2023-06-22T10:51:20;11.40;;;10.17;;
7899;SDS011;3995;50.856;4.404;2023-06-22T10:53:48;11.83;;;10.07;;
7899;SDS011;3995;50.856;4.404;2023-06-22T10:56:18;12.47;;;9.53;;
7899;SDS011;3995;50.856;4.404;2023-06-22T10:58:45;11.63;;;10.47;;
7899;SDS011;3995;50.856;4.404;2023-06-22T11:01:13;14.60;;;12.07;;
7899;SDS011;3995;50.856;4.404;2023-06-22T11:03:41;12.93;;;11.57;;
7899;SDS011;3995;50.856;4.404;2023-06-22T11:06:09;16.90;;;12.03;;
7899;SDS011;3995;50.856;4.404;2023-06-22T11:08:36;16.97;;;12.00;;
7899;SDS011;3995;50.856;4.404;2023-06-22T11:11:04;13.20;;;11.90;;
7899;SDS011;3995;50.856;4.404;2023-06-22T11:13:33;12.03;;;10.83;;
7899;SDS011;3995;50.856;4.404;2023-06-22T11:16:00;16.70;;;12.40;;
7899;SDS011;3995;50.856;4.404;2023-06-22T11:18:27;19.47;;;12.87;;
7899;SDS011;3995;50.856;4.404;2023-06-22T11:20:57;21.33;;;12.60;;
7899;SDS011;3995;50.856;4.404;2023-06-22T11:23:25;16.40;;;12.67;;
7899;SDS011;3995;50.856;4.404;2023-06-22T11:25:53;14.40;;;12.40;;
7899;SDS011;3995;50.856;4.404;2023-06-22T11:28:20;14.80;;;11.93;;
7899;SDS011;3995;50.856;4.404;2023-06-22T11:30:51;14.47;;;12.33;;
7899;SDS011;3995;50.856;4.404;2023-06-22T11:33:18;14.10;;;12.60;;
7899;SDS011;3995;50.856;4.404;2023-06-22T11:35:46;16.87;;;12.77;;
7899;SDS011;3995;50.856;4.404;2023-06-22T11:38:13;15.60;;;13.87;;
7899;SDS011;3995;50.856;4.404;2023-06-22T11:40:41;18.00;;;13.27;;
7899;SDS011;3995;50.856;4.404;2023-06-22T11:43:11;13.57;;;12.13;;
7899;SDS011;3995;50.856;4.404;2023-06-22T11:45:40;13.03;;;11.83;;
7899;SDS011;3995;50.856;4.404;2023-06-22T11:48:09;13.00;;;11.00;;
7899;SDS011;3995;50.856;4.404;2023-06-22T11:50:36;13.20;;;11.90;;
7899;SDS011;3995;50.856;4.404;2023-06-22T11:53:03;12.23;;;11.10;;
7899;SDS011;3995;50.856;4.404;2023-06-22T11:55:31;17.20;;;12.97;;
7899;SDS011;3995;50.856;4.404;2023-06-22T11:58:00;14.93;;;11.93;;
7899;SDS011;3995;50.856;4.404;2023-06-22T12:00:29;13.70;;;11.80;;
7899;SDS011;3995;50.856;4.404;2023-06-22T12:02:56;13.70;;;11.90;;
7899;SDS011;3995;50.856;4.404;2023-06-22T12:05:25;13.77;;;11.10;;
7899;SDS011;3995;50.856;4.404;2023-06-22T12:07:53;13.47;;;11.63;;
7899;SDS011;3995;50.856;4.404;2023-06-22T12:10:20;14.67;;;12.10;;
7899;SDS011;3995;50.856;4.404;2023-06-22T12:12:50;13.77;;;12.30;;
7899;SDS011;3995;50.856;4.404;2023-06-22T12:15:17;13.50;;;11.77;;
7899;SDS011;3995;50.856;4.404;2023-06-22T12:17:44;13.80;;;12.33;;
7899;SDS011;3995;50.856;4.404;2023-06-22T12:20:13;13.80;;;11.77;;
7899;SDS011;3995;50.856;4.404;2023-06-22T12:22:42;14.50;;;11.97;;
7899;SDS011;3995;50.856;4.404;2023-06-22T12:25:09;16.40;;;10.33;;
7899;SDS011;3995;50.856;4.404;2023-06-22T12:27:37;15.67;;;11.87;;
7899;SDS011;3995;50.856;4.404;2023-06-22T12:30:05;14.00;;;12.07;;
7899;SDS011;3995;50.856;4.404;2023-06-22T12:32:33;12.63;;;11.30;;
7899;SDS011;3995;50.856;4.404;2023-06-22T12:35:00;15.17;;;13.40;;
7899;SDS011;3995;50.856;4.404;2023-06-22T12:37:29;15.03;;;12.00;;
7899;SDS011;3995;50.856;4.404;2023-06-22T12:39:59;14.43;;;13.00;;
7899;SDS011;3995;50.856;4.404;2023-06-22T12:42:28;21.00;;;12.73;;
7899;SDS011;3995;50.856;4.404;2023-06-22T12:44:56;14.47;;;12.97;;
7899;SDS011;3995;50.856;4.404;2023-06-22T12:47:24;18.10;;;13.57;;
7899;SDS011;3995;50.856;4.404;2023-06-22T12:49:51;14.37;;;11.80;;
7899;SDS011;3995;50.856;4.404;2023-06-22T12:52:18;14.43;;;12.57;;
7899;SDS011;3995;50.856;4.404;2023-06-22T12:54:48;14.47;;;12.90;;
7899;SDS011;3995;50.856;4.404;2023-06-22T12:57:18;15.40;;;13.60;;
7899;SDS011;3995;50.856;4.404;2023-06-22T12:59:46;22.50;;;13.53;;
7899;SDS011;3995;50.856;4.404;2023-06-22T13:02:14;17.63;;;13.53;;
7899;SDS011;3995;50.856;4.404;2023-06-22T13:04:41;19.13;;;14.60;;
7899;SDS011;3995;50.856;4.404;2023-06-22T13:07:09;16.63;;;13.97;;
7899;SDS011;3995;50.856;4.404;2023-06-22T13:09:37;18.40;;;15.20;;
7899;SDS011;3995;50.856;4.404;2023-06-22T13:12:05;16.37;;;14.67;;
7899;SDS011;3995;50.856;4.404;2023-06-22T13:14:34;16.83;;;15.10;;
7899;SDS011;3995;50.856;4.404;2023-06-22T13:17:01;15.23;;;13.73;;
7899;SDS011;3995;50.856;4.404;2023-06-22T13:19:28;17.77;;;13.97;;
7899;SDS011;3995;50.856;4.404;2023-06-22T13:21:57;16.47;;;14.67;;
7899;SDS011;3995;50.856;4.404;2023-06-22T13:24:25;16.47;;;14.77;;
7899;SDS011;3995;50.856;4.404;2023-06-22T13:26:53;20.37;;;17.77;;
7899;SDS011;3995;50.856;4.404;2023-06-22T13:29:21;21.17;;;16.43;;
7899;SDS011;3995;50.856;4.404;2023-06-22T13:31:50;16.80;;;15.07;;
7899;SDS011;3995;50.856;4.404;2023-06-22T13:34:17;18.07;;;16.17;;
7899;SDS011;3995;50.856;4.404;2023-06-22T13:36:44;16.20;;;14.23;;
7899;SDS011;3995;50.856;4.404;2023-06-22T13:39:12;21.00;;;14.83;;
7899;SDS011;3995;50.856;4.404;2023-06-22T13:41:40;16.20;;;14.60;;
7899;SDS011;3995;50.856;4.404;2023-06-22T13:44:09;15.83;;;12.70;;
7899;SDS011;3995;50.856;4.404;2023-06-22T13:46:36;15.07;;;13.33;;
7899;SDS011;3995;50.856;4.404;2023-06-22T13:49:05;14.40;;;12.60;;
7899;SDS011;3995;50.856;4.404;2023-06-22T13:51:33;14.10;;;12.40;;
7899;SDS011;3995;50.856;4.404;2023-06-22T13:54:01;15.93;;;12.07;;
7899;SDS011;3995;50.856;4.404;2023-06-22T13:56:30;14.63;;;13.13;;
7899;SDS011;3995;50.856;4.404;2023-06-22T13:58:59;15.07;;;13.60;;
7899;SDS011;3995;50.856;4.404;2023-06-22T14:01:26;16.50;;;14.03;;
7899;SDS011;3995;50.856;4.404;2023-06-22T14:03:54;15.60;;;13.23;;
7899;SDS011;3995;50.856;4.404;2023-06-22T14:06:23;15.70;;;14.00;;
7899;SDS011;3995;50.856;4.404;2023-06-22T14:08:50;16.70;;;15.00;;
7899;SDS011;3995;50.856;4.404;2023-06-22T14:11:18;14.37;;;12.57;;
7899;SDS011;3995;50.856;4.404;2023-06-22T14:13:45;19.50;;;14.17;;
7899;SDS011;3995;50.856;4.404;2023-06-22T14:16:13;15.33;;;13.43;;
7899;SDS011;3995;50.856;4.404;2023-06-22T14:18:41;19.40;;;13.77;;
7899;SDS011;3995;50.856;4.404;2023-06-22T14:21:08;14.80;;;13.07;;
7899;SDS011;3995;50.856;4.404;2023-06-22T14:23:37;16.70;;;13.07;;
7899;SDS011;3995;50.856;4.404;2023-06-22T14:26:05;14.40;;;12.90;;
7899;SDS011;3995;50.856;4.404;2023-06-22T14:28:32;14.50;;;12.83;;
7899;SDS011;3995;50.856;4.404;2023-06-22T14:31:00;18.20;;;13.03;;
7899;SDS011;3995;50.856;4.404;2023-06-22T14:33:28;14.23;;;12.80;;
7899;SDS011;3995;50.856;4.404;2023-06-22T14:35:55;16.37;;;14.70;;
7899;SDS011;3995;50.856;4.404;2023-06-22T14:38:23;16.07;;;13.63;;
7899;SDS011;3995;50.856;4.404;2023-06-22T14:40:54;16.67;;;14.97;;
7899;SDS011;3995;50.856;4.404;2023-06-22T14:43:21;15.43;;;13.80;;
7899;SDS011;3995;50.856;4.404;2023-06-22T14:45:51;14.27;;;12.87;;
7899;SDS011;3995;50.856;4.404;2023-06-22T14:48:18;15.67;;;14.03;;
7899;SDS011;3995;50.856;4.404;2023-06-22T14:50:45;16.43;;;14.70;;
7899;SDS011;3995;50.856;4.404;2023-06-22T14:53:14;18.97;;;16.03;;
7899;SDS011;3995;50.856;4.404;2023-06-22T14:55:42;16.70;;;14.97;;
7899;SDS011;3995;50.856;4.404;2023-06-22T14:58:11;18.47;;;16.60;;
7899;SDS011;3995;50.856;4.404;2023-06-22T15:00:38;16.73;;;15.03;;
7899;SDS011;3995;50.856;4.404;2023-06-22T15:03:09;17.57;;;15.60;;
7899;SDS011;3995;50.856;4.404;2023-06-22T15:05:42;18.73;;;16.67;;
7899;SDS011;3995;50.856;4.404;2023-06-22T15:08:09;17.80;;;16.00;;